createdAt,value
2022-10-02T00:00:22.978Z,9.61
2022-10-02T00:01:23.052Z,9.62
2022-10-02T00:02:22.952Z,9.62
2022-10-02T00:03:22.939Z,9.64
2022-10-02T00:04:22.970Z,9.64
2022-10-02T00:05:22.910Z,9.65
2022-10-02T00:06:22.893Z,9.66
2022-10-02T00:07:22.888Z,9.68
2022-10-02T00:08:24.283Z,9.66
2022-10-02T00:09:22.856Z,9.66
2022-10-02T00:10:22.850Z,9.64
2022-10-02T00:11:22.833Z,9.64
2022-10-02T00:12:22.818Z,9.64
2022-10-02T00:13:22.809Z,9.64
2022-10-02T00:14:22.791Z,9.59
2022-10-02T00:15:22.777Z,9.59
2022-10-02T00:16:22.786Z,9.56
2022-10-02T00:17:22.750Z,9.54
2022-10-02T00:18:22.739Z,9.54
2022-10-02T00:19:22.721Z,9.51
2022-10-02T00:20:22.711Z,9.54
2022-10-02T00:21:22.706Z,9.56
2022-10-02T00:22:22.688Z,9.55
2022-10-02T00:23:22.675Z,9.55
2022-10-02T00:24:22.689Z,9.55
2022-10-02T00:25:22.649Z,9.54
2022-10-02T00:26:22.633Z,9.51
2022-10-02T00:27:22.622Z,9.50
2022-10-02T00:28:22.652Z,9.48
2022-10-02T00:29:22.600Z,9.50
2022-10-02T00:30:22.585Z,9.50
2022-10-02T00:31:22.638Z,9.51
2022-10-02T00:32:22.557Z,9.55
2022-10-02T00:33:22.550Z,9.56
2022-10-02T00:34:22.538Z,9.61
2022-10-02T00:35:22.524Z,9.64
2022-10-02T00:36:22.509Z,9.68
2022-10-02T00:37:22.506Z,9.72
2022-10-02T00:38:22.487Z,9.74
2022-10-02T00:39:22.476Z,9.79
2022-10-02T00:40:22.482Z,9.82
2022-10-02T00:41:22.458Z,9.86
2022-10-02T00:42:22.433Z,9.87
2022-10-02T00:43:22.423Z,9.89
2022-10-02T00:44:22.405Z,9.91
2022-10-02T00:45:22.393Z,9.94
2022-10-02T00:46:22.381Z,9.97
2022-10-02T00:47:22.368Z,9.97
2022-10-02T00:48:22.357Z,9.98
2022-10-02T00:49:22.339Z,9.98
2022-10-02T00:50:22.321Z,9.99
2022-10-02T00:51:22.314Z,10.01
2022-10-02T00:52:22.295Z,10.01
2022-10-02T00:53:22.282Z,10.02
2022-10-02T00:54:22.275Z,10.01
2022-10-02T00:55:22.261Z,10.01
2022-10-02T00:56:22.270Z,9.99
2022-10-02T00:57:22.237Z,10.01
2022-10-02T00:58:22.216Z,9.99
2022-10-02T00:59:22.203Z,9.99
2022-10-02T01:00:22.193Z,10.01
2022-10-02T01:01:22.239Z,9.99
2022-10-02T01:02:22.252Z,10.01
2022-10-02T01:03:22.154Z,9.99
2022-10-02T01:04:22.143Z,10.01
2022-10-02T01:05:22.129Z,10.01
2022-10-02T01:06:22.135Z,9.99
2022-10-02T01:07:22.103Z,10.01
2022-10-02T01:08:22.103Z,9.98
2022-10-02T01:09:22.082Z,9.97
2022-10-02T01:10:22.062Z,9.97
2022-10-02T01:11:22.047Z,9.98
2022-10-02T01:12:22.060Z,9.98
2022-10-02T01:13:22.023Z,9.97
2022-10-02T01:14:22.009Z,9.98
2022-10-02T01:15:21.999Z,9.95
2022-10-02T01:16:22.037Z,9.94
2022-10-02T01:17:21.974Z,9.95
2022-10-02T01:18:21.957Z,9.94
2022-10-02T01:19:21.944Z,9.91
2022-10-02T01:20:21.936Z,9.91
2022-10-02T01:21:21.920Z,9.91
2022-10-02T01:22:21.910Z,9.91
2022-10-02T01:23:21.896Z,9.87
2022-10-02T01:24:21.880Z,9.87
2022-10-02T01:25:21.871Z,9.87
2022-10-02T01:26:21.860Z,9.86
2022-10-02T01:27:21.842Z,9.86
2022-10-02T01:28:22.057Z,9.84
2022-10-02T01:29:21.818Z,9.84
2022-10-02T01:30:21.806Z,9.83
2022-10-02T01:31:21.822Z,9.83
2022-10-02T01:32:21.778Z,9.83
2022-10-02T01:33:21.768Z,9.84
2022-10-02T01:34:21.784Z,9.86
2022-10-02T01:35:21.750Z,9.86
2022-10-02T01:36:21.730Z,9.86
2022-10-02T01:37:21.714Z,9.87
2022-10-02T01:38:21.703Z,9.87
2022-10-02T01:39:21.690Z,9.86
2022-10-02T01:40:21.676Z,9.86
2022-10-02T01:41:21.661Z,9.89
2022-10-02T01:42:21.646Z,9.89
2022-10-02T01:43:21.629Z,9.91
2022-10-02T01:44:21.649Z,9.94
2022-10-02T01:45:21.613Z,9.97
2022-10-02T01:46:21.594Z,9.98
2022-10-02T01:47:21.584Z,9.97
2022-10-02T01:48:21.572Z,9.98
2022-10-02T01:49:21.559Z,9.98
2022-10-02T01:50:21.544Z,9.98
2022-10-02T01:51:21.530Z,10.01
2022-10-02T01:52:21.518Z,10.01
2022-10-02T01:53:21.511Z,10.01
2022-10-02T01:54:21.489Z,9.99
2022-10-02T01:55:21.480Z,10.01
2022-10-02T01:56:21.474Z,10.02
2022-10-02T01:57:21.451Z,10.02
2022-10-02T01:58:21.445Z,10.04
2022-10-02T01:59:21.428Z,10.04
2022-10-02T02:00:21.434Z,10.04
2022-10-02T02:01:21.421Z,10.04
2022-10-02T02:02:21.427Z,10.04
2022-10-02T02:03:21.381Z,10.05
2022-10-02T02:04:21.358Z,10.05
2022-10-02T02:05:21.349Z,10.07
2022-10-02T02:06:21.345Z,10.07
2022-10-02T02:07:21.323Z,10.07
2022-10-02T02:08:21.316Z,10.07
2022-10-02T02:09:21.299Z,10.09
2022-10-02T02:10:21.282Z,10.09
2022-10-02T02:11:21.267Z,10.07
2022-10-02T02:12:21.270Z,10.09
2022-10-02T02:13:21.247Z,10.10
2022-10-02T02:14:21.229Z,10.10
2022-10-02T02:15:21.238Z,10.12
2022-10-02T02:16:21.282Z,10.10
2022-10-02T02:17:21.194Z,10.12
2022-10-02T02:18:21.180Z,10.10
2022-10-02T02:19:21.169Z,10.12
2022-10-02T02:20:21.157Z,10.10
2022-10-02T02:21:22.204Z,10.12
2022-10-02T02:22:21.126Z,10.12
2022-10-02T02:23:21.110Z,10.13
2022-10-02T02:24:21.100Z,10.12
2022-10-02T02:25:21.086Z,10.13
2022-10-02T02:26:21.076Z,10.13
2022-10-02T02:27:21.067Z,10.17
2022-10-02T02:28:21.288Z,10.17
2022-10-02T02:29:21.034Z,10.17
2022-10-02T02:30:21.028Z,10.17
2022-10-02T02:31:21.133Z,10.20
2022-10-02T02:32:21.021Z,10.22
2022-10-02T02:33:20.982Z,10.23
2022-10-02T02:34:20.976Z,10.25
2022-10-02T02:35:20.961Z,10.25
2022-10-02T02:36:20.944Z,10.26
2022-10-02T02:37:20.925Z,10.28
2022-10-02T02:38:20.916Z,10.28
2022-10-02T02:39:20.902Z,10.28
2022-10-02T02:40:20.891Z,10.26
2022-10-02T02:41:20.877Z,10.28
2022-10-02T02:42:25.705Z,10.28
2022-10-02T02:43:20.853Z,10.28
2022-10-02T02:44:20.842Z,10.28
2022-10-02T02:45:20.821Z,10.28
2022-10-02T02:46:20.812Z,10.30
2022-10-02T02:47:20.809Z,10.26
2022-10-02T02:48:20.821Z,10.28
2022-10-02T02:49:20.773Z,10.28
2022-10-02T02:50:20.760Z,10.30
2022-10-02T02:51:20.747Z,10.26
2022-10-02T02:52:20.735Z,10.28
2022-10-02T02:53:20.730Z,10.30
2022-10-02T02:54:20.717Z,10.30
2022-10-02T02:55:20.694Z,10.30
2022-10-02T02:56:20.688Z,10.31
2022-10-02T02:57:20.671Z,10.31
2022-10-02T02:58:20.653Z,10.31
2022-10-02T02:59:20.645Z,10.34
2022-10-02T03:00:20.628Z,10.34
2022-10-02T03:01:20.680Z,10.35
2022-10-02T03:02:20.711Z,10.37
2022-10-02T03:03:20.590Z,10.35
2022-10-02T03:04:20.604Z,10.38
2022-10-02T03:05:20.568Z,10.40
2022-10-02T03:06:20.553Z,10.40
2022-10-02T03:07:20.545Z,10.41
2022-10-02T03:08:20.522Z,10.42
2022-10-02T03:09:20.513Z,10.44
2022-10-02T03:10:20.498Z,10.46
2022-10-02T03:11:20.490Z,10.48
2022-10-02T03:12:20.473Z,10.48
2022-10-02T03:13:20.462Z,10.49
2022-10-02T03:14:20.448Z,10.51
2022-10-02T03:15:20.432Z,10.51
2022-10-02T03:16:20.474Z,10.53
2022-10-02T03:17:20.409Z,10.51
2022-10-02T03:18:20.403Z,10.53
2022-10-02T03:19:20.385Z,10.54
2022-10-02T03:20:20.391Z,10.56
2022-10-02T03:21:20.357Z,10.59
2022-10-02T03:22:20.344Z,10.60
2022-10-02T03:23:20.861Z,10.61
2022-10-02T03:24:20.318Z,10.63
2022-10-02T03:25:20.305Z,10.67
2022-10-02T03:26:20.291Z,10.68
2022-10-02T03:27:20.279Z,10.71
2022-10-02T03:28:37.339Z,10.72
2022-10-02T03:29:21.284Z,10.74
2022-10-02T03:30:20.247Z,10.74
2022-10-02T03:31:20.275Z,10.75
2022-10-02T03:32:20.215Z,10.76
2022-10-02T03:33:20.201Z,10.76
2022-10-02T03:34:20.193Z,10.79
2022-10-02T03:35:20.173Z,10.81
2022-10-02T03:36:20.190Z,10.79
2022-10-02T03:37:20.151Z,10.81
2022-10-02T03:38:20.137Z,10.79
2022-10-02T03:39:25.309Z,10.79
2022-10-02T03:40:20.127Z,10.79
2022-10-02T03:41:20.095Z,10.79
2022-10-02T03:42:20.086Z,10.79
2022-10-02T03:43:20.070Z,10.81
2022-10-02T03:44:20.062Z,10.79
2022-10-02T03:45:46.320Z,10.81
2022-10-02T03:46:20.086Z,10.79
2022-10-02T03:47:20.025Z,10.81
2022-10-02T03:48:20.006Z,10.82
2022-10-02T03:49:20.007Z,10.81
2022-10-02T03:50:19.981Z,10.82
2022-10-02T03:51:19.966Z,10.81
2022-10-02T03:52:20.077Z,10.79
2022-10-02T03:53:19.940Z,10.81
2022-10-02T03:54:19.926Z,10.82
2022-10-02T03:55:19.917Z,10.82
2022-10-02T03:56:19.903Z,10.82
2022-10-02T03:57:19.889Z,10.82
2022-10-02T03:58:19.874Z,10.81
2022-10-02T03:59:19.867Z,10.81
2022-10-02T04:00:19.858Z,10.81
2022-10-02T04:01:19.914Z,10.79
2022-10-02T04:02:19.825Z,10.79
2022-10-02T04:03:19.847Z,10.79
2022-10-02T04:04:19.804Z,10.78
2022-10-02T04:05:19.786Z,10.76
2022-10-02T04:06:19.772Z,10.78
2022-10-02T04:07:19.756Z,10.79
2022-10-02T04:08:19.774Z,10.78
2022-10-02T04:09:19.726Z,10.78
2022-10-02T04:10:19.721Z,10.78
2022-10-02T04:11:19.710Z,10.79
2022-10-02T04:12:19.694Z,10.78
2022-10-02T04:13:19.680Z,10.78
2022-10-02T04:14:19.664Z,10.78
2022-10-02T04:15:19.652Z,10.78
2022-10-02T04:16:19.675Z,10.76
2022-10-02T04:17:19.630Z,10.76
2022-10-02T04:18:19.614Z,10.76
2022-10-02T04:19:19.600Z,10.76
2022-10-02T04:20:19.588Z,10.78
2022-10-02T04:21:19.575Z,10.75
2022-10-02T04:22:19.565Z,10.75
2022-10-02T04:23:19.558Z,10.71
2022-10-02T04:24:19.560Z,10.72
2022-10-02T04:25:19.524Z,10.72
2022-10-02T04:26:19.507Z,10.71
2022-10-02T04:27:19.497Z,10.71
2022-10-02T04:28:19.534Z,10.69
2022-10-02T04:29:19.470Z,10.68
2022-10-02T04:30:19.466Z,10.69
2022-10-02T04:31:19.544Z,10.68
2022-10-02T04:32:19.428Z,10.67
2022-10-02T04:33:19.419Z,10.68
2022-10-02T04:34:19.406Z,10.67
2022-10-02T04:35:19.392Z,10.64
2022-10-02T04:36:19.379Z,10.67
2022-10-02T04:37:19.370Z,10.67
2022-10-02T04:38:19.359Z,10.67
2022-10-02T04:39:19.342Z,10.68
2022-10-02T04:40:19.352Z,10.69
2022-10-02T04:41:19.321Z,10.71
2022-10-02T04:42:19.307Z,10.72
2022-10-02T04:43:19.291Z,10.72
2022-10-02T04:44:19.283Z,10.74
2022-10-02T04:45:19.262Z,10.75
2022-10-02T04:46:19.249Z,10.75
2022-10-02T04:47:19.237Z,10.75
2022-10-02T04:48:19.225Z,10.76
2022-10-02T04:49:19.216Z,10.78
2022-10-02T04:50:19.198Z,10.81
2022-10-02T04:51:19.188Z,10.82
2022-10-02T04:52:19.169Z,10.81
2022-10-02T04:53:19.157Z,10.82
2022-10-02T04:54:19.145Z,10.82
2022-10-02T04:55:19.134Z,10.84
2022-10-02T04:56:19.138Z,10.84
2022-10-02T04:57:19.113Z,10.86
2022-10-02T04:58:19.097Z,10.86
2022-10-02T04:59:19.088Z,10.87
2022-10-02T05:00:19.068Z,10.87
2022-10-02T05:01:19.121Z,10.89
2022-10-02T05:02:19.141Z,10.90
2022-10-02T05:03:19.030Z,10.92
2022-10-02T05:04:19.013Z,10.93
2022-10-02T05:05:19.004Z,10.93
2022-10-02T05:06:18.992Z,10.93
2022-10-02T05:07:18.979Z,10.94
2022-10-02T05:08:18.971Z,10.96
2022-10-02T05:09:18.953Z,10.97
2022-10-02T05:10:18.940Z,10.97
2022-10-02T05:11:18.930Z,10.99
2022-10-02T05:12:18.942Z,11.00
2022-10-02T05:13:18.906Z,11.04
2022-10-02T05:14:18.889Z,11.02
2022-10-02T05:15:18.876Z,11.04
2022-10-02T05:16:18.928Z,11.05
2022-10-02T05:17:18.844Z,11.05
2022-10-02T05:18:18.837Z,11.05
2022-10-02T05:19:18.829Z,11.07
2022-10-02T05:20:18.814Z,11.07
2022-10-02T05:21:18.795Z,11.08
2022-10-02T05:22:18.784Z,11.08
2022-10-02T05:23:18.767Z,11.08
2022-10-02T05:24:18.757Z,11.08
2022-10-02T05:25:18.749Z,11.08
2022-10-02T05:26:18.731Z,11.08
2022-10-02T05:27:18.723Z,11.08
2022-10-02T05:28:18.869Z,11.08
2022-10-02T05:29:18.692Z,11.11
2022-10-02T05:30:18.678Z,11.11
2022-10-02T05:31:18.711Z,11.12
2022-10-02T05:32:18.657Z,11.14
2022-10-02T05:33:18.645Z,11.15
2022-10-02T05:34:18.630Z,11.19
2022-10-02T05:35:18.619Z,11.23
2022-10-02T05:36:18.603Z,11.26
2022-10-02T05:37:18.589Z,11.27
2022-10-02T05:38:18.574Z,11.30
2022-10-02T05:39:18.562Z,11.29
2022-10-02T05:40:18.555Z,11.29
2022-10-02T05:41:18.541Z,11.30
2022-10-02T05:42:18.527Z,11.32
2022-10-02T05:43:18.514Z,11.33
2022-10-02T05:44:18.616Z,11.30
2022-10-02T05:45:18.486Z,11.32
2022-10-02T05:46:18.527Z,11.32
2022-10-02T05:47:18.460Z,11.32
2022-10-02T05:48:18.444Z,11.33
2022-10-02T05:49:18.437Z,11.33
2022-10-02T05:50:18.424Z,11.35
2022-10-02T05:51:18.412Z,11.37
2022-10-02T05:52:18.396Z,11.36
2022-10-02T05:53:18.580Z,11.36
2022-10-02T05:54:18.371Z,11.35
2022-10-02T05:55:18.361Z,11.36
2022-10-02T05:56:18.345Z,11.36
2022-10-02T05:57:18.538Z,11.35
2022-10-02T05:58:18.319Z,11.36
2022-10-02T05:59:18.310Z,11.35
2022-10-02T06:00:18.316Z,11.36
2022-10-02T06:01:18.395Z,11.40
2022-10-02T06:02:18.393Z,11.41
2022-10-02T06:03:18.257Z,11.45
2022-10-02T06:04:18.242Z,11.48
2022-10-02T06:05:18.232Z,11.52
2022-10-02T06:06:18.217Z,11.55
2022-10-02T06:07:18.203Z,11.60
2022-10-02T06:08:18.190Z,11.63
2022-10-02T06:09:20.258Z,11.65
2022-10-02T06:10:18.176Z,11.66
2022-10-02T06:11:18.157Z,11.69
2022-10-02T06:12:18.136Z,11.70
2022-10-02T06:13:18.126Z,11.73
2022-10-02T06:14:18.127Z,11.73
2022-10-02T06:15:18.096Z,11.77
2022-10-02T06:16:18.169Z,11.78
2022-10-02T06:17:18.077Z,11.81
2022-10-02T06:18:18.061Z,11.81
2022-10-02T06:19:18.048Z,11.86
2022-10-02T06:20:18.033Z,11.84
2022-10-02T06:21:18.029Z,11.86
2022-10-02T06:22:18.006Z,11.87
2022-10-02T06:23:17.998Z,11.88
2022-10-02T06:24:17.984Z,11.90
2022-10-02T06:25:17.975Z,11.91
2022-10-02T06:26:17.967Z,11.95
2022-10-02T06:27:17.943Z,11.99
2022-10-02T06:28:18.002Z,12.04
2022-10-02T06:29:19.878Z,12.09
2022-10-02T06:30:17.905Z,12.17
2022-10-02T06:31:17.960Z,12.24
2022-10-02T06:32:17.910Z,12.36
2022-10-02T06:33:17.864Z,12.40
2022-10-02T06:34:17.847Z,12.46
2022-10-02T06:35:17.841Z,12.49
2022-10-02T06:36:17.839Z,12.47
2022-10-02T06:37:17.813Z,12.47
2022-10-02T06:38:17.800Z,12.46
2022-10-02T06:39:17.790Z,12.49
2022-10-02T06:40:17.775Z,12.53
2022-10-02T06:41:17.770Z,12.53
2022-10-02T06:42:17.749Z,12.50
2022-10-02T06:43:17.735Z,12.47
2022-10-02T06:44:17.725Z,12.47
2022-10-02T06:45:17.709Z,12.47
2022-10-02T06:46:17.698Z,12.49
2022-10-02T06:47:17.684Z,12.49
2022-10-02T06:48:17.711Z,12.50
2022-10-02T06:49:17.668Z,12.53
2022-10-02T06:50:17.646Z,12.53
2022-10-02T06:51:17.634Z,12.54
2022-10-02T06:52:17.615Z,12.55
2022-10-02T06:53:17.768Z,12.55
2022-10-02T06:54:17.595Z,12.55
2022-10-02T06:55:17.578Z,12.57
2022-10-02T06:56:17.568Z,12.57
2022-10-02T06:57:17.563Z,12.57
2022-10-02T06:58:17.541Z,12.57
2022-10-02T06:59:17.540Z,12.58
2022-10-02T07:00:17.514Z,12.61
2022-10-02T07:01:17.577Z,12.65
2022-10-02T07:02:17.566Z,12.67
2022-10-02T07:03:17.471Z,12.70
2022-10-02T07:04:17.490Z,12.72
2022-10-02T07:05:17.451Z,12.72
2022-10-02T07:06:17.435Z,12.72
2022-10-02T07:07:17.423Z,12.75
2022-10-02T07:08:17.404Z,12.75
2022-10-02T07:09:17.399Z,12.73
2022-10-02T07:10:17.390Z,12.75
2022-10-02T07:11:17.368Z,12.78
2022-10-02T07:12:17.361Z,12.79
2022-10-02T07:13:17.349Z,12.79
2022-10-02T07:14:23.345Z,12.79
2022-10-02T07:15:17.320Z,12.83
2022-10-02T07:16:17.395Z,12.85
2022-10-02T07:17:21.514Z,12.86
2022-10-02T07:18:17.276Z,12.87
2022-10-02T07:19:17.263Z,12.90
2022-10-02T07:20:17.336Z,12.93
2022-10-02T07:21:17.234Z,12.97
2022-10-02T07:22:39.936Z,12.98
2022-10-02T07:23:18.237Z,13.00
2022-10-02T07:24:17.196Z,13.03
2022-10-02T07:25:17.185Z,13.04
2022-10-02T07:26:17.174Z,13.11
2022-10-02T07:27:17.160Z,13.13
2022-10-02T07:28:17.257Z,13.16
2022-10-02T07:29:17.131Z,13.20
2022-10-02T07:30:17.121Z,13.22
2022-10-02T07:31:17.133Z,13.25
2022-10-02T07:32:17.096Z,13.28
2022-10-02T07:33:17.086Z,13.30
2022-10-02T07:34:17.073Z,13.33
2022-10-02T07:35:17.058Z,13.37
2022-10-02T07:36:17.068Z,13.38
2022-10-02T07:37:17.030Z,13.38
2022-10-02T07:38:17.018Z,13.39
2022-10-02T07:39:17.001Z,13.44
2022-10-02T07:40:16.987Z,13.49
2022-10-02T07:41:16.976Z,13.50
2022-10-02T07:42:16.961Z,13.53
2022-10-02T07:43:16.958Z,13.56
2022-10-02T07:44:16.935Z,13.59
2022-10-02T07:45:16.927Z,13.65
2022-10-02T07:46:17.053Z,13.68
2022-10-02T07:47:16.900Z,13.72
2022-10-02T07:48:16.888Z,13.70
2022-10-02T07:49:16.869Z,13.70
2022-10-02T07:50:16.859Z,13.70
2022-10-02T07:51:20.406Z,13.68
2022-10-02T07:52:16.858Z,13.70
2022-10-02T07:53:16.837Z,13.68
2022-10-02T07:54:16.803Z,13.67
2022-10-02T07:55:16.796Z,13.68
2022-10-02T07:56:16.778Z,13.67
2022-10-02T07:57:16.763Z,13.68
2022-10-02T07:58:16.752Z,13.68
2022-10-02T07:59:16.735Z,13.71
2022-10-02T08:00:16.728Z,13.72
2022-10-02T08:01:16.714Z,13.75
2022-10-02T08:02:16.723Z,13.78
2022-10-02T08:03:16.741Z,13.86
2022-10-02T08:04:16.673Z,13.90
2022-10-02T08:05:16.656Z,13.90
2022-10-02T08:06:16.654Z,13.92
2022-10-02T08:07:16.638Z,13.95
2022-10-02T08:08:16.642Z,14.00
2022-10-02T08:09:16.602Z,14.03
2022-10-02T08:10:16.589Z,14.05
2022-10-02T08:11:16.585Z,14.04
2022-10-02T08:12:16.578Z,14.04
2022-10-02T08:13:16.558Z,14.08
2022-10-02T08:14:16.540Z,14.12
2022-10-02T08:15:16.532Z,14.12
2022-10-02T08:16:16.580Z,14.11
2022-10-02T08:17:16.498Z,14.14
2022-10-02T08:18:33.708Z,14.22
2022-10-02T08:19:17.502Z,14.29
2022-10-02T08:20:16.459Z,14.30
2022-10-02T08:21:16.448Z,14.30
2022-10-02T08:22:17.034Z,14.36
2022-10-02T08:23:16.476Z,14.40
2022-10-02T08:24:16.434Z,14.48
2022-10-02T08:25:16.393Z,14.54
2022-10-02T08:26:16.384Z,14.68
2022-10-02T08:27:16.367Z,14.78
2022-10-02T08:28:16.408Z,14.91
2022-10-02T08:29:16.346Z,15.09
2022-10-02T08:30:16.328Z,15.24
2022-10-02T08:31:16.395Z,15.29
2022-10-02T08:32:16.299Z,15.35
2022-10-02T08:33:16.294Z,15.35
2022-10-02T08:34:16.274Z,15.33
2022-10-02T08:35:16.268Z,15.29
2022-10-02T08:36:16.249Z,15.28
2022-10-02T08:37:16.246Z,15.24
2022-10-02T08:38:16.223Z,15.22
2022-10-02T08:39:16.203Z,15.22
2022-10-02T08:40:16.245Z,15.25
2022-10-02T08:41:16.184Z,15.27
2022-10-02T08:42:16.172Z,15.24
2022-10-02T08:43:16.162Z,15.27
2022-10-02T08:44:16.155Z,15.33
2022-10-02T08:45:16.135Z,15.36
2022-10-02T08:46:16.145Z,15.31
2022-10-02T08:47:16.102Z,15.27
2022-10-02T08:48:16.101Z,15.21
2022-10-02T08:49:16.081Z,15.11
2022-10-02T08:50:16.062Z,15.11
2022-10-02T08:51:16.060Z,15.17
2022-10-02T08:52:16.036Z,15.25
2022-10-02T08:53:16.028Z,15.36
2022-10-02T08:54:16.010Z,15.43
2022-10-02T08:55:16.013Z,15.49
2022-10-02T08:56:19.948Z,15.62
2022-10-02T08:57:15.975Z,15.75
2022-10-02T08:58:15.956Z,15.80
2022-10-02T08:59:15.957Z,15.92
2022-10-02T09:00:15.932Z,16.08
2022-10-02T09:01:15.989Z,16.12
2022-10-02T09:02:15.977Z,16.13
2022-10-02T09:03:15.902Z,16.16
2022-10-02T09:04:15.888Z,16.26
2022-10-02T09:05:15.866Z,16.36
2022-10-02T09:06:15.855Z,16.43
2022-10-02T09:07:15.842Z,16.53
2022-10-02T09:08:15.823Z,16.61
2022-10-02T09:09:15.822Z,16.64
2022-10-02T09:10:15.834Z,16.71
2022-10-02T09:11:15.785Z,16.84
2022-10-02T09:12:15.804Z,16.89
2022-10-02T09:13:15.757Z,16.87
2022-10-02T09:14:15.756Z,16.90
2022-10-02T09:15:15.736Z,16.93
2022-10-02T09:16:15.790Z,16.93
2022-10-02T09:17:15.709Z,16.87
2022-10-02T09:18:15.705Z,16.78
2022-10-02T09:19:15.681Z,16.83
2022-10-02T09:20:15.688Z,16.93
2022-10-02T09:21:15.657Z,17.04
2022-10-02T09:22:15.644Z,17.08
2022-10-02T09:23:15.634Z,17.14
2022-10-02T09:24:15.619Z,17.19
2022-10-02T09:25:15.607Z,17.16
2022-10-02T09:26:15.825Z,17.20
2022-10-02T09:27:15.588Z,17.16
2022-10-02T09:28:15.644Z,17.14
2022-10-02T09:29:15.560Z,17.19
2022-10-02T09:30:15.544Z,17.22
2022-10-02T09:31:15.569Z,17.22
2022-10-02T09:32:15.508Z,17.24
2022-10-02T09:33:16.086Z,17.26
2022-10-02T09:34:15.489Z,17.23
2022-10-02T09:35:15.474Z,17.20
2022-10-02T09:36:15.473Z,17.12
2022-10-02T09:37:15.659Z,17.05
2022-10-02T09:38:15.434Z,16.96
2022-10-02T09:39:15.421Z,16.86
2022-10-02T09:40:15.419Z,16.83
2022-10-02T09:41:15.400Z,16.78
2022-10-02T09:42:15.385Z,16.79
2022-10-02T09:43:15.369Z,16.81
2022-10-02T09:44:15.398Z,16.79
2022-10-02T09:45:15.372Z,16.79
2022-10-02T09:46:15.388Z,16.79
2022-10-02T09:47:15.321Z,16.78
2022-10-02T09:48:15.342Z,16.76
2022-10-02T09:49:15.297Z,16.74
2022-10-02T09:50:15.281Z,16.75
2022-10-02T09:51:15.278Z,16.71
2022-10-02T09:52:15.266Z,16.71
2022-10-02T09:53:15.246Z,16.69
2022-10-02T09:54:15.231Z,16.69
2022-10-02T09:55:15.218Z,16.68
2022-10-02T09:56:15.207Z,16.68
2022-10-02T09:57:15.189Z,16.72
2022-10-02T09:58:15.179Z,16.78
2022-10-02T09:59:15.168Z,16.83
2022-10-02T10:00:15.175Z,16.91
2022-10-02T10:01:15.191Z,16.93
2022-10-02T10:02:15.171Z,16.93
2022-10-02T10:03:15.116Z,16.90
2022-10-02T10:04:15.099Z,16.81
2022-10-02T10:05:15.086Z,16.69
2022-10-02T10:06:15.069Z,16.64
2022-10-02T10:07:18.977Z,16.61
2022-10-02T10:08:15.056Z,16.54
2022-10-02T10:09:15.040Z,16.56
2022-10-02T10:10:15.028Z,16.57
2022-10-02T10:11:15.006Z,16.60
2022-10-02T10:12:14.992Z,16.58
2022-10-02T10:13:14.989Z,16.61
2022-10-02T10:14:14.971Z,16.61
2022-10-02T10:15:14.968Z,16.64
2022-10-02T10:16:15.033Z,16.66
2022-10-02T10:17:14.930Z,16.66
2022-10-02T10:18:14.919Z,16.66
2022-10-02T10:19:14.905Z,16.74
2022-10-02T10:20:14.891Z,16.79
2022-10-02T10:21:14.882Z,16.83
2022-10-02T10:22:14.869Z,16.84
2022-10-02T10:23:14.850Z,16.83
2022-10-02T10:24:14.839Z,16.83
2022-10-02T10:25:14.825Z,16.83
2022-10-02T10:26:14.813Z,16.78
2022-10-02T10:27:14.803Z,16.78
2022-10-02T10:28:14.840Z,16.76
2022-10-02T10:29:14.774Z,16.74
2022-10-02T10:30:14.823Z,16.74
2022-10-02T10:31:14.795Z,16.74
2022-10-02T10:32:14.764Z,16.66
2022-10-02T10:33:14.727Z,16.61
2022-10-02T10:34:14.709Z,16.64
2022-10-02T10:35:14.699Z,16.58
2022-10-02T10:36:14.890Z,16.60
2022-10-02T10:37:14.667Z,16.53
2022-10-02T10:38:14.658Z,16.47
2022-10-02T10:39:14.652Z,16.43
2022-10-02T10:40:14.637Z,16.38
2022-10-02T10:41:14.622Z,16.35
2022-10-02T10:42:14.607Z,16.28
2022-10-02T10:43:16.762Z,16.21
2022-10-02T10:44:14.582Z,16.10
2022-10-02T10:45:14.583Z,16.05
2022-10-02T10:46:14.669Z,15.97
2022-10-02T10:47:14.540Z,15.88
2022-10-02T10:48:14.550Z,15.86
2022-10-02T10:49:14.512Z,15.83
2022-10-02T10:50:14.504Z,15.79
2022-10-02T10:51:14.504Z,15.75
2022-10-02T10:52:14.514Z,15.73
2022-10-02T10:53:14.464Z,15.75
2022-10-02T10:54:14.455Z,15.75
2022-10-02T10:55:14.452Z,15.79
2022-10-02T10:56:14.427Z,15.77
2022-10-02T10:57:14.413Z,15.82
2022-10-02T10:58:14.600Z,15.80
2022-10-02T10:59:14.384Z,15.84
2022-10-02T11:00:14.377Z,15.83
2022-10-02T11:01:14.504Z,15.86
2022-10-02T11:02:14.418Z,15.84
2022-10-02T11:03:14.337Z,15.84
2022-10-02T11:04:14.354Z,15.77
2022-10-02T11:05:14.311Z,15.76
2022-10-02T11:06:14.295Z,15.72
2022-10-02T11:07:14.283Z,15.68
2022-10-02T11:08:14.279Z,15.68
2022-10-02T11:09:14.271Z,15.67
2022-10-02T11:10:14.243Z,15.67
2022-10-02T11:11:14.226Z,15.70
2022-10-02T11:12:14.415Z,15.68
2022-10-02T11:13:14.407Z,15.72
2022-10-02T11:14:14.201Z,15.79
2022-10-02T11:15:14.178Z,15.83
2022-10-02T11:16:14.228Z,15.90
2022-10-02T11:17:14.152Z,15.95
2022-10-02T11:18:14.156Z,16.00
2022-10-02T11:19:17.890Z,16.02
2022-10-02T11:20:21.183Z,16.08
2022-10-02T11:21:14.096Z,16.10
2022-10-02T11:22:14.085Z,16.13
2022-10-02T11:23:14.080Z,16.13
2022-10-02T11:24:14.063Z,16.15
2022-10-02T11:25:14.069Z,16.16
2022-10-02T11:26:14.035Z,16.26
2022-10-02T11:27:14.028Z,16.21
2022-10-02T11:28:14.068Z,16.24
2022-10-02T11:29:14.008Z,16.16
2022-10-02T11:30:13.985Z,16.20
2022-10-02T11:31:13.996Z,16.16
2022-10-02T11:32:13.956Z,16.15
2022-10-02T11:33:13.955Z,16.17
2022-10-02T11:34:13.937Z,16.17
2022-10-02T11:35:13.921Z,16.20
2022-10-02T11:36:13.950Z,16.20
2022-10-02T11:37:13.903Z,16.17
2022-10-02T11:38:13.885Z,16.13
2022-10-02T11:39:13.865Z,16.05
2022-10-02T11:40:13.850Z,16.05
2022-10-02T11:41:13.840Z,16.04
2022-10-02T11:42:13.826Z,16.01
2022-10-02T11:43:13.817Z,16.01
2022-10-02T11:44:13.799Z,16.01
2022-10-02T11:45:13.789Z,16.01
2022-10-02T11:46:13.905Z,15.98
2022-10-02T11:47:13.761Z,15.97
2022-10-02T11:48:13.748Z,15.95
2022-10-02T11:49:13.733Z,15.95
2022-10-02T11:50:13.716Z,15.95
2022-10-02T11:51:13.710Z,15.91
2022-10-02T11:52:13.733Z,15.86
2022-10-02T11:53:13.691Z,15.84
2022-10-02T11:54:13.668Z,15.77
2022-10-02T11:55:13.658Z,15.76
2022-10-02T11:56:13.646Z,15.77
2022-10-02T11:57:13.640Z,15.79
2022-10-02T11:58:13.618Z,15.80
2022-10-02T11:59:13.603Z,15.83
2022-10-02T12:00:13.590Z,15.84
2022-10-02T12:01:13.576Z,15.94
2022-10-02T12:02:16.482Z,16.02
2022-10-02T12:03:13.735Z,16.09
2022-10-02T12:04:13.546Z,16.16
2022-10-02T12:05:19.536Z,16.26
2022-10-02T12:06:13.513Z,16.31
2022-10-02T12:07:13.496Z,16.36
2022-10-02T12:08:13.510Z,16.42
2022-10-02T12:09:13.471Z,16.49
2022-10-02T12:10:13.465Z,16.50
2022-10-02T12:11:13.447Z,16.53
2022-10-02T12:12:13.434Z,16.56
2022-10-02T12:13:13.425Z,16.58
2022-10-02T12:14:13.406Z,16.66
2022-10-02T12:15:13.399Z,16.76
2022-10-02T12:16:13.484Z,16.76
2022-10-02T12:17:13.367Z,16.83
2022-10-02T12:18:14.653Z,16.89
2022-10-02T12:19:13.352Z,16.89
2022-10-02T12:20:13.333Z,16.90
2022-10-02T12:21:13.315Z,16.91
2022-10-02T12:22:13.301Z,16.90
2022-10-02T12:23:13.294Z,16.89
2022-10-02T12:24:13.307Z,16.91
2022-10-02T12:25:13.260Z,16.87
2022-10-02T12:26:13.249Z,16.81
2022-10-02T12:27:13.243Z,16.76
2022-10-02T12:28:13.373Z,16.74
2022-10-02T12:29:13.210Z,16.65
2022-10-02T12:30:13.200Z,16.58
2022-10-02T12:31:13.385Z,16.56
2022-10-02T12:32:13.225Z,16.53
2022-10-02T12:33:13.160Z,16.49
2022-10-02T12:34:13.148Z,16.49
2022-10-02T12:35:13.133Z,16.49
2022-10-02T12:36:13.115Z,16.51
2022-10-02T12:37:13.117Z,16.49
2022-10-02T12:38:13.092Z,16.54
2022-10-02T12:39:13.077Z,16.58
2022-10-02T12:40:13.088Z,16.66
2022-10-02T12:41:13.056Z,16.71
2022-10-02T12:42:13.042Z,16.72
2022-10-02T12:43:13.029Z,16.76
2022-10-02T12:44:13.012Z,16.78
2022-10-02T12:45:13.017Z,16.79
2022-10-02T12:46:13.273Z,16.75
2022-10-02T12:47:12.982Z,16.76
2022-10-02T12:48:12.967Z,16.83
2022-10-02T12:49:12.959Z,16.87
2022-10-02T12:50:12.939Z,16.91
2022-10-02T12:51:12.924Z,16.97
2022-10-02T12:52:12.912Z,16.96
2022-10-02T12:53:12.895Z,17.04
2022-10-02T12:54:12.883Z,17.09
2022-10-02T12:55:12.866Z,17.19